Terminal Aerodrome Forecast
Issued by NWS

Home | Current Version | Previous Version | Graphics & Text | Print | Product List | Glossary On
Versions: 1 2 3 4 5 6 7 8 9 10 11
000
FTUS43 KPAH 230520
TAFOWB
TAF
KOWB 230520Z 2306/2406 VRB02KT P6SM SKC
      TEMPO 2310/2312 5SM BR
     FM231500 09007KT P6SM FEW040=

USA.gov is the U.S. government's official web portal to all federal, state and local government web resources and services.